Time,TemperatureF,DewpointF,PressureIn,WindDirection,WindDirectionDegrees,WindSpeedMPH,WindSpeedGustMPH,Humidity,HourlyPrecipIn,Conditions,Clouds,dailyrainin,SoftwareType,DateUTC
2013-10-22 00:25:00,47.0,36.0,30.01,WNW,303,0.0,0.0,65,0.00,,,0.00,,2013-10-22 04:25:00,
2013-10-22 00:43:00,47.0,35.0,30.00,WNW,301,0.0,0.0,64,0.00,,,0.00,,2013-10-22 04:43:00,
2013-10-22 00:54:00,47.0,35.0,30.00,WNW,301,0.0,0.0,64,0.00,,,0.00,,2013-10-22 04:54:00,
2013-10-22 01:13:00,46.0,35.0,30.02,WNW,287,0.0,0.0,65,0.00,,,0.00,,2013-10-22 05:13:00,
2013-10-22 01:22:00,46.0,35.0,30.02,WNW,287,0.0,0.0,65,0.00,,,0.00,,2013-10-22 05:22:00,
2013-10-22 01:52:00,45.0,34.0,30.03,NNW,339,0.0,0.0,65,0.00,,,0.00,,2013-10-22 05:52:00,
2013-10-22 02:12:00,44.0,33.0,30.03,NNE,25,0.0,0.0,64,0.00,,,0.00,,2013-10-22 06:12:00,
2013-10-22 02:22:00,44.0,33.0,30.03,NNE,25,0.0,0.0,64,0.00,,,0.00,,2013-10-22 06:22:00,
2013-10-22 02:43:00,42.0,32.0,30.04,North,8,0.0,0.0,67,0.00,,,0.00,,2013-10-22 06:43:00,
2013-10-22 02:54:00,42.0,32.0,30.04,North,4,0.0,0.0,67,0.00,,,0.00,,2013-10-22 06:54:00,
2013-10-22 03:12:00,41.0,32.0,30.03,North,4,0.0,0.0,69,0.00,,,0.00,,2013-10-22 07:12:00,
2013-10-22 03:22:00,41.0,32.0,30.03,North,4,0.0,0.0,69,0.00,,,0.00,,2013-10-22 07:22:00,
2013-10-22 03:52:00,38.0,31.0,30.04,North,4,0.0,0.0,77,0.00,,,0.00,,2013-10-22 07:52:00,
2013-10-22 04:12:00,38.0,32.0,30.04,North,8,0.0,0.0,79,0.00,,,0.00,,2013-10-22 08:12:00,
2013-10-22 04:22:00,37.0,32.0,30.04,North,4,0.0,0.0,81,0.00,,,0.00,,2013-10-22 08:22:00,
2013-10-22 04:32:00,37.0,32.0,30.04,North,4,0.0,0.0,81,0.00,,,0.00,,2013-10-22 08:32:00,
2013-10-22 04:42:00,37.0,32.0,30.04,North,4,0.0,0.0,81,0.00,,,0.00,,2013-10-22 08:42:00,
2013-10-22 04:52:00,35.0,31.0,30.04,North,4,0.0,0.0,85,0.00,,,0.00,,2013-10-22 08:52:00,
2013-10-22 05:11:00,35.0,31.0,30.04,North,4,0.0,0.0,85,0.00,,,0.00,,2013-10-22 09:11:00,
2013-10-22 05:21:00,35.0,31.0,30.04,North,4,0.0,0.0,85,0.00,,,0.00,,2013-10-22 09:21:00,
2013-10-22 05:43:00,34.0,31.0,30.04,North,4,0.0,0.0,87,0.00,,,0.00,,2013-10-22 09:43:00,
2013-10-22 05:54:00,34.0,31.0,30.04,North,4,0.0,0.0,87,0.00,,,0.00,,2013-10-22 09:54:00,
2013-10-22 06:13:00,33.0,30.0,30.03,North,8,0.0,0.0,88,0.00,,,0.00,,2013-10-22 10:13:00,
2013-10-22 06:23:00,33.0,30.0,30.03,North,4,0.0,0.0,89,0.00,,,0.00,,2013-10-22 10:23:00,
2013-10-22 06:43:00,32.0,29.0,30.04,North,4,0.0,0.0,89,0.00,,,0.00,,2013-10-22 10:43:00,
2013-10-22 06:53:00,32.0,29.0,30.04,North,4,0.0,0.0,89,0.00,,,0.00,,2013-10-22 10:53:00,
2013-10-22 07:12:00,32.0,29.0,30.04,North,4,0.0,0.0,90,0.00,,,0.00,,2013-10-22 11:12:00,
2013-10-22 07:22:00,32.0,29.0,30.04,North,4,0.0,0.0,90,0.00,,,0.00,,2013-10-22 11:22:00,
2013-10-22 07:42:00,32.0,30.0,30.05,North,4,0.0,0.0,91,0.00,,,0.00,,2013-10-22 11:42:00,
2013-10-22 07:53:00,32.0,30.0,30.05,North,4,0.0,0.0,91,0.00,,,0.00,,2013-10-22 11:53:00,
2013-10-22 08:11:00,31.0,29.0,30.05,North,8,0.0,0.0,91,0.00,,,0.00,,2013-10-22 12:11:00,
2013-10-22 08:22:00,31.0,29.0,30.05,North,8,0.0,0.0,91,0.00,,,0.00,,2013-10-22 12:22:00,
2013-10-22 08:42:00,31.0,29.0,30.05,North,4,0.0,0.0,92,0.00,,,0.00,,2013-10-22 12:42:00,
2013-10-22 08:52:00,31.0,29.0,30.04,North,4,0.0,0.0,93,0.00,,,0.00,,2013-10-22 12:52:00,
2013-10-22 09:12:00,31.0,29.0,30.04,North,4,0.0,0.0,93,0.00,,,0.00,,2013-10-22 13:12:00,
2013-10-22 09:21:00,32.0,30.0,30.05,North,4,0.0,0.0,93,0.00,,,0.00,,2013-10-22 13:21:00,
2013-10-22 09:32:00,32.0,30.0,30.05,North,4,0.0,0.0,93,0.00,,,0.00,,2013-10-22 13:32:00,
2013-10-22 09:42:00,32.0,30.0,30.05,North,4,0.0,0.0,93,0.00,,,0.00,,2013-10-22 13:42:00,
2013-10-22 09:53:00,33.0,31.0,30.06,North,4,0.0,0.0,94,0.00,,,0.00,,2013-10-22 13:53:00,
2013-10-22 10:12:00,34.0,32.0,30.06,North,4,0.0,0.0,94,0.00,,,0.00,,2013-10-22 14:12:00,
2013-10-22 10:21:00,35.0,33.0,30.06,North,4,0.0,0.0,94,0.00,,,0.00,,2013-10-22 14:21:00,
2013-10-22 10:42:00,37.0,35.0,30.05,North,4,0.0,0.0,92,0.00,,,0.00,,2013-10-22 14:42:00,
2013-10-22 10:52:00,38.0,34.0,30.05,SE,143,0.0,0.0,86,0.00,,,0.00,,2013-10-22 14:52:00,
2013-10-22 11:01:00,38.0,34.0,30.05,SE,143,0.0,0.0,86,0.00,,,0.00,,2013-10-22 15:01:00,
2013-10-22 11:12:00,38.0,34.0,30.05,SE,143,0.0,0.0,86,0.00,,,0.00,,2013-10-22 15:12:00,
2013-10-22 11:22:00,43.0,35.0,30.04,SSW,209,0.0,0.0,72,0.00,,,0.00,,2013-10-22 15:22:00,
2013-10-22 11:43:00,44.0,34.0,30.04,WSW,243,0.0,0.0,67,0.00,,,0.00,,2013-10-22 15:43:00,
2013-10-22 11:54:00,44.0,34.0,30.04,WSW,243,0.0,0.0,67,0.00,,,0.00,,2013-10-22 15:54:00,
2013-10-22 12:13:00,47.0,33.0,30.03,West,270,0.0,0.0,58,0.00,,,0.00,,2013-10-22 16:13:00,
2013-10-22 12:23:00,47.0,33.0,30.03,West,270,0.0,0.0,58,0.00,,,0.00,,2013-10-22 16:23:00,
2013-10-22 12:43:00,50.0,34.0,30.01,ENE,58,0.0,0.0,54,0.00,,,0.00,,2013-10-22 16:43:00,
2013-10-22 12:53:00,50.0,34.0,30.01,ENE,58,0.0,0.0,54,0.00,,,0.00,,2013-10-22 16:53:00,
2013-10-22 13:12:00,52.0,35.0,30.00,SW,230,0.0,0.0,53,0.00,,,0.00,,2013-10-22 17:12:00,
2013-10-22 13:22:00,52.0,35.0,30.00,SW,230,0.0,0.0,53,0.00,,,0.00,,2013-10-22 17:22:00,
2013-10-22 13:43:00,53.0,33.0,29.99,SE,143,0.0,0.0,46,0.00,,,0.00,,2013-10-22 17:43:00,
2013-10-22 13:53:00,53.0,34.0,29.98,SE,146,0.0,0.0,49,0.00,,,0.00,,2013-10-22 17:53:00,
2013-10-22 14:02:00,53.0,34.0,29.98,SE,146,0.0,0.0,49,0.00,,,0.00,,2013-10-22 18:02:00,
2013-10-22 14:12:00,53.0,34.0,29.98,SE,146,0.0,0.0,49,0.00,,,0.00,,2013-10-22 18:12:00,
2013-10-22 14:22:00,55.0,35.0,29.96,SSW,201,0.0,0.0,46,0.00,,,0.00,,2013-10-22 18:22:00,
2013-10-22 14:42:00,54.0,34.0,29.94,SSE,161,0.0,0.0,47,0.00,,,0.00,,2013-10-22 18:42:00,
2013-10-22 14:52:00,54.0,34.0,29.94,West,268,0.0,0.0,47,0.00,,,0.00,,2013-10-22 18:52:00,
2013-10-22 15:12:00,54.0,35.0,29.93,SSE,163,0.0,0.0,48,0.00,,,0.00,,2013-10-22 19:12:00,
2013-10-22 15:22:00,54.0,36.0,29.93,SSE,156,0.0,0.0,50,0.00,,,0.00,,2013-10-22 19:22:00,
2013-10-22 15:42:00,54.0,36.0,29.92,SW,228,0.0,0.0,50,0.00,,,0.00,,2013-10-22 19:42:00,
2013-10-22 15:52:00,53.0,35.0,29.91,SSW,201,0.0,0.0,51,0.00,,,0.00,,2013-10-22 19:52:00,
2013-10-22 16:03:00,53.0,35.0,29.91,SSW,201,0.0,0.0,51,0.00,,,0.00,,2013-10-22 20:03:00,
2013-10-22 16:11:00,53.0,35.0,29.91,SSW,201,0.0,0.0,51,0.00,,,0.00,,2013-10-22 20:11:00,
2013-10-22 16:22:00,53.0,36.0,29.91,SSE,164,0.0,0.0,52,0.00,,,0.00,,2013-10-22 20:22:00,
2013-10-22 16:43:00,53.0,36.0,29.90,SSE,153,0.0,0.0,52,0.00,,,0.00,,2013-10-22 20:43:00,
2013-10-22 16:52:00,53.0,36.0,29.90,SSE,153,0.0,0.0,52,0.00,,,0.00,,2013-10-22 20:52:00,
2013-10-22 17:02:00,53.0,36.0,29.90,SSE,153,0.0,0.0,52,0.00,,,0.00,,2013-10-22 21:02:00,
2013-10-22 17:54:00,52.0,36.0,29.87,SSW,200,0.0,0.0,55,0.00,,,0.00,,2013-10-22 21:54:00,
2013-10-22 18:14:00,52.0,37.0,29.88,WSW,249,0.0,0.0,56,0.00,,,0.00,,2013-10-22 22:14:00,
2013-10-22 18:24:00,51.0,39.0,29.87,WSW,249,0.0,0.0,63,0.00,,,0.00,,2013-10-22 22:24:00,
2013-10-22 18:44:00,51.0,38.0,29.86,WSW,249,0.0,0.0,62,0.00,,,0.00,,2013-10-22 22:44:00,
2013-10-22 18:54:00,50.0,39.0,29.85,WSW,249,0.0,0.0,66,0.00,,,0.00,,2013-10-22 22:54:00,
2013-10-22 19:12:00,50.0,39.0,29.85,WSW,249,0.0,0.0,65,0.00,,,0.00,,2013-10-22 23:12:00,
2013-10-22 19:23:00,50.0,39.0,29.85,WSW,249,0.0,0.0,65,0.00,,,0.00,,2013-10-22 23:23:00,
2013-10-22 19:43:00,49.0,39.0,29.85,WSW,249,0.0,0.0,67,0.00,,,0.00,,2013-10-22 23:43:00,
2013-10-22 19:53:00,49.0,39.0,29.85,WSW,249,0.0,0.0,67,0.00,,,0.00,,2013-10-22 23:53:00,
2013-10-22 20:11:00,48.0,40.0,29.85,WSW,249,0.0,0.0,73,0.00,,,0.00,,2013-10-23 00:11:00,
2013-10-22 20:22:00,48.0,40.0,29.85,WSW,249,0.0,0.0,73,0.00,,,0.00,,2013-10-23 00:22:00,
2013-10-22 20:42:00,47.0,41.0,29.86,WSW,249,0.0,0.0,79,0.00,,,0.00,,2013-10-23 00:42:00,
2013-10-22 20:52:00,47.0,41.0,29.86,WSW,249,0.0,0.0,79,0.00,,,0.00,,2013-10-23 00:52:00,
2013-10-22 21:11:00,47.0,42.0,29.86,WSW,249,0.0,0.0,82,0.00,,,0.00,,2013-10-23 01:11:00,
2013-10-22 21:23:00,47.0,41.0,29.85,WSW,249,0.0,0.0,81,0.00,,,0.00,,2013-10-23 01:23:00,
2013-10-22 21:32:00,47.0,41.0,29.85,WSW,249,0.0,0.0,81,0.00,,,0.00,,2013-10-23 01:32:00,
2013-10-22 21:42:00,47.0,41.0,29.85,WSW,249,0.0,0.0,81,0.00,,,0.00,,2013-10-23 01:42:00,
2013-10-22 21:52:00,47.0,42.0,29.85,WSW,248,0.0,0.0,82,0.00,,,0.00,,2013-10-23 01:52:00,
2013-10-22 22:02:00,47.0,42.0,29.85,WSW,248,0.0,0.0,82,0.00,,,0.00,,2013-10-23 02:02:00,
2013-10-22 22:11:00,47.0,42.0,29.85,WSW,248,0.0,0.0,82,0.00,,,0.00,,2013-10-23 02:11:00,
2013-10-22 22:22:00,47.0,41.0,29.83,WSW,249,0.0,0.0,81,0.00,,,0.00,,2013-10-23 02:22:00,
2013-10-22 22:42:00,47.0,41.0,29.83,WSW,249,0.0,0.0,81,0.00,,,0.00,,2013-10-23 02:42:00,
2013-10-22 22:53:00,47.0,42.0,29.83,WSW,248,0.0,0.0,82,0.00,,,0.00,,2013-10-23 02:53:00,
2013-10-22 23:12:00,47.0,43.0,29.84,West,264,0.0,0.0,85,0.00,,,0.00,,2013-10-23 03:12:00,
2013-10-22 23:22:00,47.0,43.0,29.84,West,264,0.0,0.0,85,0.00,,,0.00,,2013-10-23 03:22:00,
2013-10-22 23:44:00,46.0,43.0,29.81,SE,141,0.0,0.0,89,0.01,,,0.01,,2013-10-23 03:44:00,
2013-10-22 23:55:00,46.0,43.0,29.81,SE,141,0.0,0.0,89,0.01,,,0.01,,2013-10-23 03:55:00,